KJXN

Jackson County-Reynolds Field Airport

Jackson, Michigan, USA
METAR KJXN 172356Z 27005KT 10SM CLR 04/M04 A3032 RMK AO2 SLP277 T00391044 10089 20039 51031
Observed Flight Rules
Oct-17 @ 23:56 UTC (an hour ago) Visual Flight Rules
Wind Visibility Clouds
270° at 5 knots 10 miles
  • Clear skies
Temperatures Readings
Current 4°C / 39°F
Dewpoint -4°C / 25°F
Humidity 56%
Altimeter 30.32" Hg
Pressure 1027.7 hPa
Elevation 305
METAR KJXN 172356Z 27005KT 10SM CLR 04/M04 A3032 RMK AO2 SLP277 T00391044 10089 20039 51031
Observed Flight Rules
Oct-17 @ 23:56 UTC
(an hour ago)
VFR
Wind Visibility
270° at 5 knots 10 miles
Clouds
  • Clear skies
Temperature Dewpoint
4°C / 39°F -4°C / 25°F
Humidity Altimeter Pressure
56% 30.32" Hg 1027.7 hPa